sensor_id;sensor_type;location;lat;lon;timestamp;pressure;altitude;pressure_sealevel;temperature;humidity
25498;BME280;13406;53.380;7.226;2023-05-07T00:00:36;101805.09;;;11.53;100.00
25498;BME280;13406;53.380;7.226;2023-05-07T00:03:02;101779.78;;;11.47;100.00
25498;BME280;13406;53.380;7.226;2023-05-07T00:05:28;101795.41;;;11.67;100.00
25498;BME280;13406;53.380;7.226;2023-05-07T00:07:53;101796.00;;;11.54;100.00
25498;BME280;13406;53.380;7.226;2023-05-07T00:10:19;101781.75;;;11.53;100.00
25498;BME280;13406;53.380;7.226;2023-05-07T00:12:44;101806.50;;;11.49;100.00
25498;BME280;13406;53.380;7.226;2023-05-07T00:15:10;101769.84;;;11.33;100.00
25498;BME280;13406;53.380;7.226;2023-05-07T00:17:36;101792.06;;;11.65;100.00
25498;BME280;13406;53.380;7.226;2023-05-07T00:20:03;101776.97;;;11.64;100.00
25498;BME280;13406;53.380;7.226;2023-05-07T00:22:30;101773.53;;;11.70;100.00
25498;BME280;13406;53.380;7.226;2023-05-07T00:24:56;101790.88;;;11.67;100.00
25498;BME280;13406;53.380;7.226;2023-05-07T00:27:22;101786.03;;;11.63;100.00
25498;BME280;13406;53.380;7.226;2023-05-07T00:29:47;101780.31;;;11.66;100.00
25498;BME280;13406;53.380;7.226;2023-05-07T00:32:13;101759.72;;;11.58;100.00
25498;BME280;13406;53.380;7.226;2023-05-07T00:34:39;101768.16;;;11.70;100.00
25498;BME280;13406;53.380;7.226;2023-05-07T00:37:05;101773.81;;;11.60;100.00
25498;BME280;13406;53.380;7.226;2023-05-07T00:39:33;101759.78;;;11.50;100.00
25498;BME280;13406;53.380;7.226;2023-05-07T00:41:58;101751.19;;;11.54;100.00
25498;BME280;13406;53.380;7.226;2023-05-07T00:44:24;101731.34;;;11.41;100.00
25498;BME280;13406;53.380;7.226;2023-05-07T00:46:49;101728.38;;;11.50;100.00
25498;BME280;13406;53.380;7.226;2023-05-07T00:49:15;101752.94;;;11.62;100.00
25498;BME280;13406;53.380;7.226;2023-05-07T00:51:41;101771.59;;;11.64;100.00
25498;BME280;13406;53.380;7.226;2023-05-07T00:54:07;101776.66;;;11.59;100.00
25498;BME280;13406;53.380;7.226;2023-05-07T00:56:33;101756.94;;;11.51;100.00
25498;BME280;13406;53.380;7.226;2023-05-07T00:59:03;101748.41;;;11.63;100.00
25498;BME280;13406;53.380;7.226;2023-05-07T01:01:29;101781.38;;;11.57;100.00
25498;BME280;13406;53.380;7.226;2023-05-07T01:03:54;101784.44;;;11.53;100.00
25498;BME280;13406;53.380;7.226;2023-05-07T01:06:21;101778.06;;;11.54;100.00
25498;BME280;13406;53.380;7.226;2023-05-07T01:08:49;101801.47;;;11.46;100.00
25498;BME280;13406;53.380;7.226;2023-05-07T01:11:16;101784.41;;;11.39;100.00
25498;BME280;13406;53.380;7.226;2023-05-07T01:13:42;101808.53;;;11.62;100.00
25498;BME280;13406;53.380;7.226;2023-05-07T01:16:08;101799.78;;;11.45;100.00
25498;BME280;13406;53.380;7.226;2023-05-07T01:18:34;101794.41;;;11.45;100.00
25498;BME280;13406;53.380;7.226;2023-05-07T01:21:01;101691.50;;;10.92;100.00
25498;BME280;13406;53.380;7.226;2023-05-07T01:23:29;101776.53;;;11.37;100.00
25498;BME280;13406;53.380;7.226;2023-05-07T01:25:55;101775.69;;;11.37;100.00
25498;BME280;13406;53.380;7.226;2023-05-07T01:28:21;101806.22;;;11.59;100.00
25498;BME280;13406;53.380;7.226;2023-05-07T01:30:53;101799.34;;;11.56;100.00
25498;BME280;13406;53.380;7.226;2023-05-07T01:33:21;101789.03;;;11.45;100.00
25498;BME280;13406;53.380;7.226;2023-05-07T01:35:50;101772.47;;;11.41;100.00
25498;BME280;13406;53.380;7.226;2023-05-07T01:38:17;101776.63;;;11.44;100.00
25498;BME280;13406;53.380;7.226;2023-05-07T01:40:43;101777.31;;;11.46;100.00
25498;BME280;13406;53.380;7.226;2023-05-07T01:43:09;101781.44;;;11.48;100.00
25498;BME280;13406;53.380;7.226;2023-05-07T01:45:35;101787.41;;;11.59;100.00
25498;BME280;13406;53.380;7.226;2023-05-07T01:48:02;101780.63;;;11.48;100.00
25498;BME280;13406;53.380;7.226;2023-05-07T01:50:28;101786.00;;;11.48;100.00
25498;BME280;13406;53.380;7.226;2023-05-07T01:52:55;101771.16;;;11.37;100.00
25498;BME280;13406;53.380;7.226;2023-05-07T01:55:20;101786.72;;;11.42;100.00
25498;BME280;13406;53.380;7.226;2023-05-07T01:57:46;101774.78;;;11.44;100.00
25498;BME280;13406;53.380;7.226;2023-05-07T02:00:12;101756.25;;;11.35;100.00
25498;BME280;13406;53.380;7.226;2023-05-07T02:02:37;101783.22;;;11.41;100.00
25498;BME280;13406;53.380;7.226;2023-05-07T02:05:03;101788.84;;;11.31;100.00
25498;BME280;13406;53.380;7.226;2023-05-07T02:07:29;101799.59;;;11.31;100.00
25498;BME280;13406;53.380;7.226;2023-05-07T02:09:55;101800.63;;;11.45;100.00
25498;BME280;13406;53.380;7.226;2023-05-07T02:12:21;101775.69;;;11.37;100.00
25498;BME280;13406;53.380;7.226;2023-05-07T02:14:46;101763.34;;;11.27;100.00
25498;BME280;13406;53.380;7.226;2023-05-07T02:17:12;101787.25;;;11.60;100.00
25498;BME280;13406;53.380;7.226;2023-05-07T02:19:37;101781.81;;;11.45;100.00
25498;BME280;13406;53.380;7.226;2023-05-07T02:22:03;101763.09;;;11.37;100.00
25498;BME280;13406;53.380;7.226;2023-05-07T02:24:28;101758.44;;;11.31;100.00
25498;BME280;13406;53.380;7.226;2023-05-07T02:26:54;101734.34;;;11.23;100.00
25498;BME280;13406;53.380;7.226;2023-05-07T02:29:19;101776.19;;;11.40;100.00
25498;BME280;13406;53.380;7.226;2023-05-07T02:31:44;101770.13;;;11.38;100.00
25498;BME280;13406;53.380;7.226;2023-05-07T02:34:10;101776.53;;;11.37;100.00
25498;BME280;13406;53.380;7.226;2023-05-07T02:36:35;101771.53;;;11.34;100.00
25498;BME280;13406;53.380;7.226;2023-05-07T02:39:01;101776.91;;;11.34;100.00
25498;BME280;13406;53.380;7.226;2023-05-07T02:41:27;101749.72;;;11.14;100.00
25498;BME280;13406;53.380;7.226;2023-05-07T02:43:53;101775.31;;;11.40;100.00
25498;BME280;13406;53.380;7.226;2023-05-07T02:46:18;101770.41;;;11.28;100.00
25498;BME280;13406;53.380;7.226;2023-05-07T02:48:44;101750.28;;;11.01;100.00
25498;BME280;13406;53.380;7.226;2023-05-07T02:51:09;101784.28;;;11.32;100.00
25498;BME280;13406;53.380;7.226;2023-05-07T02:53:35;101754.88;;;11.16;100.00
25498;BME280;13406;53.380;7.226;2023-05-07T02:56:01;101753.16;;;11.23;100.00
25498;BME280;13406;53.380;7.226;2023-05-07T02:58:27;101777.47;;;11.44;100.00
25498;BME280;13406;53.380;7.226;2023-05-07T03:00:52;101765.22;;;11.42;100.00
25498;BME280;13406;53.380;7.226;2023-05-07T03:03:19;101770.97;;;11.39;100.00
25498;BME280;13406;53.380;7.226;2023-05-07T03:05:45;101782.97;;;11.28;100.00
25498;BME280;13406;53.380;7.226;2023-05-07T03:08:10;101753.13;;;11.08;100.00
25498;BME280;13406;53.380;7.226;2023-05-07T03:10:36;101764.72;;;11.23;100.00
25498;BME280;13406;53.380;7.226;2023-05-07T03:13:02;101768.66;;;11.36;100.00
25498;BME280;13406;53.380;7.226;2023-05-07T03:15:28;101767.97;;;11.34;100.00
25498;BME280;13406;53.380;7.226;2023-05-07T03:17:54;101758.16;;;11.26;100.00
25498;BME280;13406;53.380;7.226;2023-05-07T03:20:19;101752.25;;;11.07;100.00
25498;BME280;13406;53.380;7.226;2023-05-07T03:22:45;101760.44;;;11.14;100.00
25498;BME280;13406;53.380;7.226;2023-05-07T03:25:10;101766.09;;;11.19;100.00
25498;BME280;13406;53.380;7.226;2023-05-07T03:27:36;101764.53;;;11.25;100.00
25498;BME280;13406;53.380;7.226;2023-05-07T03:30:02;101758.28;;;11.09;100.00
25498;BME280;13406;53.380;7.226;2023-05-07T03:32:27;101757.41;;;11.17;100.00
25498;BME280;13406;53.380;7.226;2023-05-07T03:34:53;101741.34;;;11.09;100.00
25498;BME280;13406;53.380;7.226;2023-05-07T03:37:18;101731.91;;;10.90;100.00
25498;BME280;13406;53.380;7.226;2023-05-07T03:39:47;101765.63;;;10.93;100.00
25498;BME280;13406;53.380;7.226;2023-05-07T03:42:13;101740.63;;;10.92;100.00
25498;BME280;13406;53.380;7.226;2023-05-07T03:44:38;101731.19;;;10.96;100.00
25498;BME280;13406;53.380;7.226;2023-05-07T03:47:04;101725.59;;;10.83;100.00
25498;BME280;13406;53.380;7.226;2023-05-07T03:49:38;101679.00;;;10.53;100.00
25498;BME280;13406;53.380;7.226;2023-05-07T03:52:09;101760.09;;;10.94;100.00
25498;BME280;13406;53.380;7.226;2023-05-07T03:54:34;101726.91;;;10.64;100.00
25498;BME280;13406;53.380;7.226;2023-05-07T03:57:00;101706.03;;;10.51;100.00
25498;BME280;13406;53.380;7.226;2023-05-07T03:59:28;101711.50;;;10.27;100.00
25498;BME280;13406;53.380;7.226;2023-05-07T04:01:54;101701.09;;;10.24;100.00
25498;BME280;13406;53.380;7.226;2023-05-07T04:04:20;101664.06;;;9.96;100.00
25498;BME280;13406;53.380;7.226;2023-05-07T04:06:46;101783.03;;;10.74;100.00
25498;BME280;13406;53.380;7.226;2023-05-07T04:09:12;101725.56;;;10.37;100.00
25498;BME280;13406;53.380;7.226;2023-05-07T04:11:40;101771.31;;;10.67;100.00
25498;BME280;13406;53.380;7.226;2023-05-07T04:14:06;101756.63;;;10.54;100.00
25498;BME280;13406;53.380;7.226;2023-05-07T04:16:31;101714.88;;;10.29;100.00
25498;BME280;13406;53.380;7.226;2023-05-07T04:18:57;101800.28;;;10.79;100.00
25498;BME280;13406;53.380;7.226;2023-05-07T04:21:26;101739.25;;;10.50;100.00
25498;BME280;13406;53.380;7.226;2023-05-07T04:23:52;101795.91;;;10.78;100.00
25498;BME280;13406;53.380;7.226;2023-05-07T04:26:17;101777.75;;;10.57;100.00
25498;BME280;13406;53.380;7.226;2023-05-07T04:28:43;101763.47;;;10.65;100.00
25498;BME280;13406;53.380;7.226;2023-05-07T04:31:11;101765.09;;;10.35;100.00
25498;BME280;13406;53.380;7.226;2023-05-07T04:33:37;101810.50;;;10.76;100.00
25498;BME280;13406;53.380;7.226;2023-05-07T04:36:03;101775.78;;;10.51;100.00
25498;BME280;13406;53.380;7.226;2023-05-07T04:38:30;101758.97;;;10.57;100.00
25498;BME280;13406;53.380;7.226;2023-05-07T04:40:55;101797.03;;;10.84;100.00
25498;BME280;13406;53.380;7.226;2023-05-07T04:43:22;101766.69;;;10.52;100.00
25498;BME280;13406;53.380;7.226;2023-05-07T04:45:51;101709.16;;;10.24;100.00
25498;BME280;13406;53.380;7.226;2023-05-07T04:48:35;101803.25;;;10.84;100.00
25498;BME280;13406;53.380;7.226;2023-05-07T04:51:01;101733.63;;;10.21;100.00
25498;BME280;13406;53.380;7.226;2023-05-07T04:53:26;101784.28;;;10.55;100.00
25498;BME280;13406;53.380;7.226;2023-05-07T04:55:56;101762.47;;;10.27;100.00
25498;BME280;13406;53.380;7.226;2023-05-07T04:58:24;101801.28;;;10.47;100.00
25498;BME280;13406;53.380;7.226;2023-05-07T05:00:50;101793.28;;;10.31;100.00
25498;BME280;13406;53.380;7.226;2023-05-07T05:03:18;101738.34;;;10.18;100.00
25498;BME280;13406;53.380;7.226;2023-05-07T05:05:49;101792.88;;;10.50;100.00
25498;BME280;13406;53.380;7.226;2023-05-07T05:08:14;101835.72;;;10.67;100.00
25498;BME280;13406;53.380;7.226;2023-05-07T05:10:40;101769.31;;;10.21;100.00
25498;BME280;13406;53.380;7.226;2023-05-07T05:13:07;101777.69;;;10.26;100.00
25498;BME280;13406;53.380;7.226;2023-05-07T05:15:33;101832.06;;;10.59;100.00
25498;BME280;13406;53.380;7.226;2023-05-07T05:17:58;101830.19;;;10.68;100.00
25498;BME280;13406;53.380;7.226;2023-05-07T05:20:24;101763.47;;;10.17;100.00
25498;BME280;13406;53.380;7.226;2023-05-07T05:22:49;101800.88;;;10.58;100.00
25498;BME280;13406;53.380;7.226;2023-05-07T05:25:15;101795.25;;;10.45;100.00
25498;BME280;13406;53.380;7.226;2023-05-07T05:27:40;101794.31;;;10.22;100.00
25498;BME280;13406;53.380;7.226;2023-05-07T05:30:06;101845.41;;;10.76;100.00
25498;BME280;13406;53.380;7.226;2023-05-07T05:32:32;101818.38;;;10.46;100.00
25498;BME280;13406;53.380;7.226;2023-05-07T05:34:57;101829.56;;;10.58;100.00
25498;BME280;13406;53.380;7.226;2023-05-07T05:37:23;101805.19;;;10.36;100.00
25498;BME280;13406;53.380;7.226;2023-05-07T05:39:48;101819.84;;;10.57;100.00
25498;BME280;13406;53.380;7.226;2023-05-07T05:42:14;101760.19;;;9.99;100.00
25498;BME280;13406;53.380;7.226;2023-05-07T05:44:47;101840.94;;;10.60;100.00
25498;BME280;13406;53.380;7.226;2023-05-07T05:47:13;101813.69;;;10.48;100.00
25498;BME280;13406;53.380;7.226;2023-05-07T05:49:38;101844.44;;;10.69;100.00
25498;BME280;13406;53.380;7.226;2023-05-07T05:52:07;101853.19;;;10.62;100.00
25498;BME280;13406;53.380;7.226;2023-05-07T05:54:33;101775.59;;;10.05;100.00
25498;BME280;13406;53.380;7.226;2023-05-07T05:57:01;101859.88;;;10.58;100.00
25498;BME280;13406;53.380;7.226;2023-05-07T05:59:34;101831.53;;;10.16;100.00
25498;BME280;13406;53.380;7.226;2023-05-07T06:02:00;101846.22;;;10.37;100.00
25498;BME280;13406;53.380;7.226;2023-05-07T06:04:26;101808.56;;;10.14;100.00
25498;BME280;13406;53.380;7.226;2023-05-07T06:06:52;101824.28;;;10.25;100.00
25498;BME280;13406;53.380;7.226;2023-05-07T06:09:20;101766.59;;;9.98;100.00
25498;BME280;13406;53.380;7.226;2023-05-07T06:11:49;101760.06;;;9.92;100.00
25498;BME280;13406;53.380;7.226;2023-05-07T06:14:14;101821.47;;;10.18;100.00
25498;BME280;13406;53.380;7.226;2023-05-07T06:16:43;101662.75;;;9.20;100.00
25498;BME280;13406;53.380;7.226;2023-05-07T06:19:09;101886.59;;;10.52;100.00
25498;BME280;13406;53.380;7.226;2023-05-07T06:21:34;101861.66;;;10.35;100.00
25498;BME280;13406;53.380;7.226;2023-05-07T06:24:00;101840.88;;;10.21;100.00
25498;BME280;13406;53.380;7.226;2023-05-07T06:26:25;101882.75;;;10.38;100.00
25498;BME280;13406;53.380;7.226;2023-05-07T06:28:51;101825.28;;;10.32;100.00
25498;BME280;13406;53.380;7.226;2023-05-07T06:31:20;101830.16;;;10.37;100.00
25498;BME280;13406;53.380;7.226;2023-05-07T06:33:49;101803.56;;;10.11;100.00
25498;BME280;13406;53.380;7.226;2023-05-07T06:36:15;101756.22;;;9.87;100.00
25498;BME280;13406;53.380;7.226;2023-05-07T06:38:43;101850.19;;;10.57;100.00
25498;BME280;13406;53.380;7.226;2023-05-07T06:41:09;101868.22;;;10.72;100.00
25498;BME280;13406;53.380;7.226;2023-05-07T06:43:35;101867.66;;;10.53;100.00
25498;BME280;13406;53.380;7.226;2023-05-07T06:46:01;101824.78;;;10.37;100.00
25498;BME280;13406;53.380;7.226;2023-05-07T06:48:27;101876.97;;;10.74;100.00
25498;BME280;13406;53.380;7.226;2023-05-07T06:51:11;101845.16;;;10.54;100.00
25498;BME280;13406;53.380;7.226;2023-05-07T06:53:37;101826.59;;;10.45;100.00
25498;BME280;13406;53.380;7.226;2023-05-07T06:56:02;101815.38;;;10.41;100.00
25498;BME280;13406;53.380;7.226;2023-05-07T06:58:30;101863.09;;;10.62;100.00
25498;BME280;13406;53.380;7.226;2023-05-07T07:00:56;101846.03;;;10.47;100.00
25498;BME280;13406;53.380;7.226;2023-05-07T07:03:21;101793.44;;;10.37;100.00
25498;BME280;13406;53.380;7.226;2023-05-07T07:05:47;101873.88;;;10.85;100.00
25498;BME280;13406;53.380;7.226;2023-05-07T07:08:12;101846.34;;;10.91;100.00
25498;BME280;13406;53.380;7.226;2023-05-07T07:10:38;101864.59;;;10.96;100.00
25498;BME280;13406;53.380;7.226;2023-05-07T07:13:03;101864.47;;;10.89;100.00
25498;BME280;13406;53.380;7.226;2023-05-07T07:15:29;101855.38;;;10.90;100.00
25498;BME280;13406;53.380;7.226;2023-05-07T07:17:54;101860.03;;;10.96;100.00
25498;BME280;13406;53.380;7.226;2023-05-07T07:20:19;101868.78;;;10.98;100.00
25498;BME280;13406;53.380;7.226;2023-05-07T07:22:45;101864.72;;;11.02;100.00
25498;BME280;13406;53.380;7.226;2023-05-07T07:25:10;101836.13;;;10.86;100.00
25498;BME280;13406;53.380;7.226;2023-05-07T07:27:37;101830.28;;;10.83;100.00
25498;BME280;13406;53.380;7.226;2023-05-07T07:30:03;101832.69;;;10.70;100.00
25498;BME280;13406;53.380;7.226;2023-05-07T07:32:35;101863.81;;;11.10;100.00
25498;BME280;13406;53.380;7.226;2023-05-07T07:35:02;101863.19;;;11.08;100.00
25498;BME280;13406;53.380;7.226;2023-05-07T07:37:28;101863.81;;;11.10;100.00
25498;BME280;13406;53.380;7.226;2023-05-07T07:39:53;101865.63;;;11.18;100.00
25498;BME280;13406;53.380;7.226;2023-05-07T07:42:19;101863.00;;;11.09;100.00
25498;BME280;13406;53.380;7.226;2023-05-07T07:44:44;101865.44;;;11.19;100.00
25498;BME280;13406;53.380;7.226;2023-05-07T07:47:10;101845.28;;;11.23;100.00
25498;BME280;13406;53.380;7.226;2023-05-07T07:49:36;101843.09;;;10.96;100.00
25498;BME280;13406;53.380;7.226;2023-05-07T07:52:01;101839.78;;;10.94;100.00
25498;BME280;13406;53.380;7.226;2023-05-07T07:54:27;101858.09;;;11.13;100.00
25498;BME280;13406;53.380;7.226;2023-05-07T07:56:52;101839.53;;;11.03;100.00
25498;BME280;13406;53.380;7.226;2023-05-07T07:59:21;101803.16;;;10.70;100.00
25498;BME280;13406;53.380;7.226;2023-05-07T08:01:47;101849.53;;;11.18;100.00
25498;BME280;13406;53.380;7.226;2023-05-07T08:04:21;101804.94;;;10.85;100.00
25498;BME280;13406;53.380;7.226;2023-05-07T08:06:46;101866.00;;;11.15;100.00
25498;BME280;13406;53.380;7.226;2023-05-07T08:09:12;101825.22;;;10.88;100.00
25498;BME280;13406;53.380;7.226;2023-05-07T08:11:40;101829.16;;;11.00;100.00
25498;BME280;13406;53.380;7.226;2023-05-07T08:14:06;101873.59;;;11.34;100.00
25498;BME280;13406;53.380;7.226;2023-05-07T08:16:32;101884.78;;;11.15;100.00
25498;BME280;13406;53.380;7.226;2023-05-07T08:18:57;101823.78;;;11.00;100.00
25498;BME280;13406;53.380;7.226;2023-05-07T08:21:23;101831.59;;;11.10;100.00
25498;BME280;13406;53.380;7.226;2023-05-07T08:23:48;101822.56;;;11.11;100.00
25498;BME280;13406;53.380;7.226;2023-05-07T08:26:23;101823.78;;;11.00;100.00
25498;BME280;13406;53.380;7.226;2023-05-07T08:28:49;101851.97;;;11.27;100.00
25498;BME280;13406;53.380;7.226;2023-05-07T08:31:14;101847.16;;;11.23;100.00
25498;BME280;13406;53.380;7.226;2023-05-07T08:33:43;101858.81;;;11.07;100.00
25498;BME280;13406;53.380;7.226;2023-05-07T08:36:11;101868.44;;;11.24;100.00
25498;BME280;13406;53.380;7.226;2023-05-07T08:38:37;101878.97;;;11.34;100.00
25498;BME280;13406;53.380;7.226;2023-05-07T08:41:03;101848.34;;;11.20;100.00
25498;BME280;13406;53.380;7.226;2023-05-07T08:43:31;101845.41;;;11.30;100.00
25498;BME280;13406;53.380;7.226;2023-05-07T08:46:00;101857.69;;;11.47;100.00
25498;BME280;13406;53.380;7.226;2023-05-07T08:48:33;101869.16;;;11.64;100.00
25498;BME280;13406;53.380;7.226;2023-05-07T08:50:59;101875.41;;;11.57;100.00
25498;BME280;13406;53.380;7.226;2023-05-07T08:53:31;101814.50;;;11.11;100.00
25498;BME280;13406;53.380;7.226;2023-05-07T08:55:57;101870.34;;;11.62;100.00
25498;BME280;13406;53.380;7.226;2023-05-07T08:58:23;101868.69;;;11.38;100.00
25498;BME280;13406;53.380;7.226;2023-05-07T09:00:50;101868.50;;;11.62;100.00
25498;BME280;13406;53.380;7.226;2023-05-07T09:03:16;101861.28;;;11.40;100.00
25498;BME280;13406;53.380;7.226;2023-05-07T09:05:42;101867.38;;;11.57;100.00
25498;BME280;13406;53.380;7.226;2023-05-07T09:08:09;101847.97;;;11.69;100.00
25498;BME280;13406;53.380;7.226;2023-05-07T09:10:34;101853.63;;;11.74;100.00
25498;BME280;13406;53.380;7.226;2023-05-07T09:13:00;101801.50;;;11.23;100.00
25498;BME280;13406;53.380;7.226;2023-05-07T09:15:28;101836.44;;;11.61;100.00
25498;BME280;13406;53.380;7.226;2023-05-07T09:17:53;101851.66;;;11.68;100.00
25498;BME280;13406;53.380;7.226;2023-05-07T09:20:18;101846.00;;;11.63;100.00
25498;BME280;13406;53.380;7.226;2023-05-07T09:22:44;101853.03;;;11.64;100.00
25498;BME280;13406;53.380;7.226;2023-05-07T09:25:10;101843.31;;;11.63;100.00
25498;BME280;13406;53.380;7.226;2023-05-07T09:27:36;101859.53;;;11.70;100.00
25498;BME280;13406;53.380;7.226;2023-05-07T09:30:05;101847.13;;;11.69;100.00
25498;BME280;13406;53.380;7.226;2023-05-07T09:32:34;101850.88;;;11.60;100.00
25498;BME280;13406;53.380;7.226;2023-05-07T09:35:00;101851.72;;;11.83;100.00
25498;BME280;13406;53.380;7.226;2023-05-07T09:37:26;101825.59;;;11.92;100.00
25498;BME280;13406;53.380;7.226;2023-05-07T09:39:52;101829.88;;;12.01;100.00
25498;BME280;13406;53.380;7.226;2023-05-07T09:42:26;101839.81;;;12.15;100.00
25498;BME280;13406;53.380;7.226;2023-05-07T09:44:52;101818.75;;;12.19;100.00
25498;BME280;13406;53.380;7.226;2023-05-07T09:47:23;101833.84;;;12.50;100.00
25498;BME280;13406;53.380;7.226;2023-05-07T09:49:49;101838.97;;;12.59;100.00
25498;BME280;13406;53.380;7.226;2023-05-07T09:52:16;101839.78;;;12.60;100.00
25498;BME280;13406;53.380;7.226;2023-05-07T09:54:43;101806.66;;;12.59;100.00
25498;BME280;13406;53.380;7.226;2023-05-07T09:57:10;101825.75;;;12.79;100.00
25498;BME280;13406;53.380;7.226;2023-05-07T09:59:37;101830.97;;;13.02;100.00
25498;BME280;13406;53.380;7.226;2023-05-07T10:02:04;101825.72;;;13.16;100.00
25498;BME280;13406;53.380;7.226;2023-05-07T10:04:31;101800.13;;;13.05;100.00
25498;BME280;13406;53.380;7.226;2023-05-07T10:06:57;101805.38;;;12.92;100.00
25498;BME280;13406;53.380;7.226;2023-05-07T10:09:25;101818.22;;;13.11;100.00
25498;BME280;13406;53.380;7.226;2023-05-07T10:11:51;101819.88;;;13.12;100.00
25498;BME280;13406;53.380;7.226;2023-05-07T10:14:20;101813.16;;;13.23;100.00
25498;BME280;13406;53.380;7.226;2023-05-07T10:16:47;101816.59;;;13.31;100.00
25498;BME280;13406;53.380;7.226;2023-05-07T10:19:12;101804.28;;;13.50;100.00
25498;BME280;13406;53.380;7.226;2023-05-07T10:21:44;101790.16;;;13.70;100.00
25498;BME280;13406;53.380;7.226;2023-05-07T10:24:21;101800.78;;;13.78;100.00
25498;BME280;13406;53.380;7.226;2023-05-07T10:26:50;101770.88;;;13.73;100.00
25498;BME280;13406;53.380;7.226;2023-05-07T10:32:40;101788.72;;;14.09;100.00
25498;BME280;13406;53.380;7.226;2023-05-07T10:35:26;101785.41;;;14.07;100.00
25498;BME280;13406;53.380;7.226;2023-05-07T10:37:54;101781.53;;;14.16;100.00
25498;BME280;13406;53.380;7.226;2023-05-07T10:40:20;101807.31;;;14.32;100.00
25498;BME280;13406;53.380;7.226;2023-05-07T10:42:59;101814.81;;;14.30;100.00
25498;BME280;13406;53.380;7.226;2023-05-07T10:45:26;101815.09;;;14.07;100.00
25498;BME280;13406;53.380;7.226;2023-05-07T10:50:44;101811.56;;;14.06;100.00
25498;BME280;13406;53.380;7.226;2023-05-07T10:55:41;101804.56;;;14.53;100.00
25498;BME280;13406;53.380;7.226;2023-05-07T10:58:26;101802.53;;;14.68;100.00
25498;BME280;13406;53.380;7.226;2023-05-07T11:00:59;101775.16;;;14.30;100.00
25498;BME280;13406;53.380;7.226;2023-05-07T11:03:25;101801.13;;;14.73;100.00
25498;BME280;13406;53.380;7.226;2023-05-07T11:08:54;101806.53;;;14.79;100.00
25498;BME280;13406;53.380;7.226;2023-05-07T11:11:20;101783.50;;;14.35;100.00
25498;BME280;13406;53.380;7.226;2023-05-07T11:13:49;101820.03;;;14.79;100.00
25498;BME280;13406;53.380;7.226;2023-05-07T11:16:23;101817.34;;;14.92;100.00
25498;BME280;13406;53.380;7.226;2023-05-07T11:18:53;101802.47;;;15.30;100.00
25498;BME280;13406;53.380;7.226;2023-05-07T11:23:57;101792.72;;;15.49;100.00
25498;BME280;13406;53.380;7.226;2023-05-07T11:26:23;101809.56;;;15.84;100.00
25498;BME280;13406;53.380;7.226;2023-05-07T11:28:49;101828.72;;;15.82;100.00
25498;BME280;13406;53.380;7.226;2023-05-07T11:31:21;101800.38;;;15.19;100.00
25498;BME280;13406;53.380;7.226;2023-05-07T11:33:48;101817.41;;;15.06;100.00
25498;BME280;13406;53.380;7.226;2023-05-07T11:36:14;101787.28;;;15.29;100.00
25498;BME280;13406;53.380;7.226;2023-05-07T11:38:40;101791.25;;;15.13;100.00
25498;BME280;13406;53.380;7.226;2023-05-07T11:41:06;101824.53;;;15.60;100.00
25498;BME280;13406;53.380;7.226;2023-05-07T11:43:32;101813.94;;;15.65;100.00
25498;BME280;13406;53.380;7.226;2023-05-07T11:46:18;101806.22;;;15.42;100.00
25498;BME280;13406;53.380;7.226;2023-05-07T11:48:48;101792.09;;;15.60;100.00
25498;BME280;13406;53.380;7.226;2023-05-07T11:51:18;101804.19;;;15.71;100.00
25498;BME280;13406;53.380;7.226;2023-05-07T11:53:44;101769.63;;;15.59;100.00
25498;BME280;13406;53.380;7.226;2023-05-07T11:56:12;101803.72;;;15.60;100.00
25498;BME280;13406;53.380;7.226;2023-05-07T11:58:39;101802.50;;;15.83;100.00
25498;BME280;13406;53.380;7.226;2023-05-07T12:01:07;101793.13;;;15.92;100.00
25498;BME280;13406;53.380;7.226;2023-05-07T12:03:33;101798.94;;;15.89;100.00
25498;BME280;13406;53.380;7.226;2023-05-07T12:05:59;101819.13;;;15.93;100.00
25498;BME280;13406;53.380;7.226;2023-05-07T12:08:25;101819.13;;;15.93;100.00
25498;BME280;13406;53.380;7.226;2023-05-07T12:10:50;101808.13;;;15.88;100.00
25498;BME280;13406;53.380;7.226;2023-05-07T12:13:22;101812.41;;;16.16;100.00
25498;BME280;13406;53.380;7.226;2023-05-07T12:15:52;101781.06;;;15.81;100.00
25498;BME280;13406;53.380;7.226;2023-05-07T12:18:18;101824.91;;;16.17;100.00
25498;BME280;13406;53.380;7.226;2023-05-07T12:20:45;101826.97;;;16.21;100.00
25498;BME280;13406;53.380;7.226;2023-05-07T12:23:11;101825.56;;;16.12;100.00
25498;BME280;13406;53.380;7.226;2023-05-07T12:25:38;101846.78;;;16.15;100.00
25498;BME280;13406;53.380;7.226;2023-05-07T12:28:04;101836.59;;;16.04;100.00
25498;BME280;13406;53.380;7.226;2023-05-07T12:30:39;101843.25;;;16.15;100.00
25498;BME280;13406;53.380;7.226;2023-05-07T12:33:05;101813.09;;;15.91;100.00
25498;BME280;13406;53.380;7.226;2023-05-07T12:35:32;101847.22;;;15.99;100.00
25498;BME280;13406;53.380;7.226;2023-05-07T12:38:01;101835.72;;;16.17;100.00
25498;BME280;13406;53.380;7.226;2023-05-07T12:40:43;101852.13;;;16.42;100.00
25498;BME280;13406;53.380;7.226;2023-05-07T12:43:26;101864.72;;;16.75;100.00
25498;BME280;13406;53.380;7.226;2023-05-07T12:45:57;101826.03;;;16.61;100.00
25498;BME280;13406;53.380;7.226;2023-05-07T12:48:25;101874.03;;;16.92;100.00
25498;BME280;13406;53.380;7.226;2023-05-07T12:50:56;101854.00;;;17.00;100.00
25498;BME280;13406;53.380;7.226;2023-05-07T12:53:24;101870.50;;;16.91;100.00